Airport Name : Sheremetyevo

Other Name : Sheremetyevo

ICAO : UUEE

IATA : SVO

FAA :

Latitude : 55.972642

Longitude : 37.414589

Country : Russia

Local Date and Time : 7/23/2018 4:50:00 PM

 

TAF (Terminal Aerodrome Forecast)

TAF UUEE 231049Z 2312/2412 08007MPS 9999 BKN020 TX23/2313Z TN17/2402Z TEMPO 2312/2318 08008G13MPS -SHRA SCT011 SCT020CB TEMPO 2323/2406 SCT004

 

METAR (METeorological Aerodrome Report)

UUEE 231330Z 09008MPS 9999 SCT041 22/14 Q1011 R06C/CLRD62 R06R/CLRD62 NOSIG

UUEE 231300Z 08009MPS 9999 SCT040 22/15 Q1011 R06C/CLRD62 R06R/CLRD62 NOSIG

UUEE 231230Z 07009MPS 9999 SCT040 22/15 Q1011 R06C/CLRD62 R06R/CLRD62 NOSIG

UUEE 231200Z 08008G14MPS 9999 BKN048 22/16 Q1012 R06C/CLRD62 R06R/CLRD62 NOSIG

UUEE 231130Z 09007MPS 9999 BKN048 22/15 Q1012 R06C/CLRD62 R06R/CLRD62 NOSIG

UUEE 231100Z 08007MPS 9999 BKN035 21/15 Q1012 R06C/CLRD62 R06R/CLRD62 NOSIG

UUEE 231030Z 08008MPS 9999 BKN034 21/15 Q1012 R06C/CLRD62 R06R/CLRD62 NOSIG

UUEE 231000Z 09008MPS 9999 BKN045 22/15 Q1011 R06C/CLRD62 R06R/CLRD62 NOSIG